Time;durP1;ratioP1;P1;durP2;ratioP2;P2;SDS_P1;SDS_P2;PMS_P1;PMS_P2;Temp;Humidity;BMP_temperature;BMP_pressure;BME280_temperature;BME280_humidity;BME280_pressure;Samples;Min_cycle;Max_cycle;Signal;HPM_P1;HPM_P2
2021/12/28 00:01:51;;;;;;;;;1.75;1.75;;;;;;;;5034680;28;45545;-72
2021/12/28 00:04:17;;;;;;;;;1.00;1.00;;;;;;;;5034386;28;45573;-73
2021/12/28 00:06:42;;;;;;;;;1.00;1.00;;;;;;;;5034806;28;45590;-73
2021/12/28 00:09:08;;;;;;;;;3.00;1.00;;;;;;;;5034759;28;45578;-73
2021/12/28 00:11:34;;;;;;;;;0.25;0.25;;;;;;;;5036504;28;45554;-73
2021/12/28 00:14:01;;;;;;;;;1.50;1.00;;;;;;;;5036946;28;46017;-73
2021/12/28 00:17:58;;;;;;;;;1.00;1.00;;;;;;;;5038462;28;45328;-72
2021/12/28 00:19:18;;;;;;;;;0.50;0.50;;;;;;;;5033743;28;45707;-73
2021/12/28 00:21:44;;;;;;;;;0.00;0.00;;;;;;;;5016465;28;45559;-72
2021/12/28 00:24:09;;;;;;;;;2.00;2.00;;;;;;;;5016271;28;46237;-72
2021/12/28 00:26:34;;;;;;;;;2.00;2.00;;;;;;;;5036428;28;45290;-72
2021/12/28 00:28:59;;;;;;;;;2.00;2.00;;;;;;;;5034405;28;45510;-72
2021/12/28 00:31:26;;;;;;;;;1.00;0.75;;;;;;;;5034020;28;45617;-73
2021/12/28 00:33:52;;;;;;;;;2.75;2.00;;;;;;;;5031785;28;47180;-73
2021/12/28 00:36:18;;;;;;;;;2.00;1.75;;;;;;;;5017129;28;45480;-72
2021/12/28 00:38:43;;;;;;;;;1.50;1.50;;;;;;;;5036026;28;45689;-72
2021/12/28 00:41:09;;;;;;;;;1.50;1.50;;;;;;;;5034453;28;45384;-73
2021/12/28 00:43:34;;;;;;;;;0.75;0.75;;;;;;;;5034106;28;47055;-73
2021/12/28 00:46:00;;;;;;;;;1.00;1.00;;;;;;;;5034103;28;47720;-73
2021/12/28 00:48:25;;;;;;;;;1.50;1.50;;;;;;;;5034010;28;45607;-73
2021/12/28 00:50:52;;;;;;;;;2.00;1.00;;;;;;;;5035851;28;45383;-72
2021/12/28 00:53:17;;;;;;;;;2.00;2.00;;;;;;;;5033054;28;46418;-73
2021/12/28 00:55:42;;;;;;;;;0.75;0.00;;;;;;;;5032713;28;45530;-72
2021/12/28 00:58:07;;;;;;;;;1.00;1.00;;;;;;;;5034295;28;45320;-72
2021/12/28 01:00:34;;;;;;;;;0.00;0.00;;;;;;;;5034288;28;45275;-72
2021/12/28 01:03:01;;;;;;;;;1.50;1.50;;;;;;;;5034171;28;46956;-72
2021/12/28 01:05:27;;;;;;;;;0.00;0.00;;;;;;;;5035056;28;45459;-72
2021/12/28 01:07:53;;;;;;;;;1.00;1.00;;;;;;;;5015836;28;45372;-73
2021/12/28 01:10:20;;;;;;;;;1.00;1.00;;;;;;;;5033786;28;45483;-72
2021/12/28 01:12:46;;;;;;;;;1.00;1.00;;;;;;;;5032357;28;46821;-72
2021/12/28 01:15:12;;;;;;;;;0.00;0.00;;;;;;;;5033716;28;45274;-72
2021/12/28 01:17:38;;;;;;;;;0.00;0.00;;;;;;;;5035522;28;45424;-72
2021/12/28 01:20:05;;;;;;;;;0.00;0.00;;;;;;;;5033187;28;45485;-72
2021/12/28 01:22:30;;;;;;;;;0.00;0.00;;;;;;;;5033185;28;47257;-72
2021/12/28 01:24:55;;;;;;;;;0.00;0.00;;;;;;;;5033409;28;45521;-72
2021/12/28 01:27:21;;;;;;;;;0.50;0.50;;;;;;;;5034332;28;45175;-72
2021/12/28 01:29:46;;;;;;;;;0.00;0.00;;;;;;;;5035564;28;45156;-73
2021/12/28 01:32:12;;;;;;;;;1.00;1.00;;;;;;;;5032815;28;46098;-73
2021/12/28 01:34:38;;;;;;;;;0.00;0.00;;;;;;;;5033392;28;45411;-72
2021/12/28 01:37:04;;;;;;;;;0.00;0.00;;;;;;;;5033416;28;45358;-73
2021/12/28 01:39:29;;;;;;;;;0.00;0.00;;;;;;;;5033416;28;45378;-72
2021/12/28 01:41:54;;;;;;;;;1.00;1.00;;;;;;;;5034796;28;45800;-73
2021/12/28 01:44:19;;;;;;;;;0.00;0.00;;;;;;;;5033511;28;45406;-72
2021/12/28 01:46:44;;;;;;;;;0.00;0.00;;;;;;;;5032125;28;45566;-72
2021/12/28 01:49:10;;;;;;;;;0.00;0.00;;;;;;;;5033359;28;45316;-72
2021/12/28 01:51:35;;;;;;;;;0.00;0.00;;;;;;;;5031824;28;45949;-72
2021/12/28 01:54:01;;;;;;;;;0.00;0.00;;;;;;;;5034042;28;47194;-72
2021/12/28 01:56:26;;;;;;;;;0.00;0.00;;;;;;;;5035286;28;45445;-72
2021/12/28 01:58:53;;;;;;;;;0.00;0.00;;;;;;;;5033193;28;45544;-72
2021/12/28 02:01:18;;;;;;;;;0.75;0.00;;;;;;;;5032811;28;45447;-72
2021/12/28 02:03:44;;;;;;;;;0.25;0.00;;;;;;;;5033147;28;45299;-72
2021/12/28 02:06:10;;;;;;;;;0.00;0.00;;;;;;;;5033264;28;45511;-72
2021/12/28 02:08:35;;;;;;;;;0.00;0.00;;;;;;;;5035273;28;45400;-72
2021/12/28 02:11:00;;;;;;;;;0.00;0.00;;;;;;;;5033004;28;45528;-73
2021/12/28 02:13:26;;;;;;;;;0.00;0.00;;;;;;;;5032996;28;45482;-72
2021/12/28 02:15:52;;;;;;;;;0.00;0.00;;;;;;;;5032693;28;45352;-74
2021/12/28 02:18:19;;;;;;;;;5.50;1.75;;;;;;;;5033283;28;45518;-73
2021/12/28 02:20:45;;;;;;;;;1.50;1.00;;;;;;;;5030547;28;46425;-72
2021/12/28 02:23:10;;;;;;;;;6.25;4.00;;;;;;;;5032733;28;45424;-71
2021/12/28 02:25:36;;;;;;;;;4.75;4.00;;;;;;;;5032831;28;45579;-72
2021/12/28 02:28:02;;;;;;;;;3.50;2.50;;;;;;;;5032666;28;45541;-71
2021/12/28 02:30:27;;;;;;;;;1.50;1.50;;;;;;;;5031391;28;45408;-72
2021/12/28 02:32:53;;;;;;;;;2.00;2.00;;;;;;;;5034023;28;45322;-73
2021/12/28 02:35:20;;;;;;;;;1.00;0.25;;;;;;;;5032219;28;45442;-72
2021/12/28 02:37:46;;;;;;;;;0.50;0.00;;;;;;;;5032723;28;45460;-73
2021/12/28 02:40:13;;;;;;;;;0.75;0.00;;;;;;;;5032128;28;45476;-72
2021/12/28 02:42:38;;;;;;;;;0.00;0.00;;;;;;;;5032943;28;47937;-73
2021/12/28 02:45:09;;;;;;;;;0.00;0.00;;;;;;;;5014586;28;45650;-71
2021/12/28 02:47:36;;;;;;;;;0.00;0.00;;;;;;;;5034733;28;45442;-72
2021/12/28 02:50:02;;;;;;;;;0.00;0.00;;;;;;;;5032403;28;46299;-71
2021/12/28 02:52:27;;;;;;;;;0.25;0.00;;;;;;;;5032556;28;45345;-71
2021/12/28 02:54:52;;;;;;;;;0.00;0.00;;;;;;;;5032617;28;45265;-71
2021/12/28 02:57:18;;;;;;;;;0.25;0.25;;;;;;;;5034473;28;45564;-71
2021/12/28 02:59:50;;;;;;;;;0.25;0.25;;;;;;;;5037498;28;45810;-71
2021/12/28 03:02:16;;;;;;;;;0.00;0.00;;;;;;;;5036330;28;45256;-71
2021/12/28 03:04:41;;;;;;;;;0.00;0.00;;;;;;;;5035822;28;45320;-71
2021/12/28 03:07:06;;;;;;;;;0.00;0.00;;;;;;;;5035743;28;45412;-72
2021/12/28 03:09:31;;;;;;;;;0.00;0.00;;;;;;;;5033873;28;47365;-71
2021/12/28 03:11:57;;;;;;;;;0.50;0.50;;;;;;;;5036110;28;45401;-72
2021/12/28 03:14:22;;;;;;;;;0.75;0.00;;;;;;;;5035258;28;45345;-72
2021/12/28 03:16:47;;;;;;;;;1.00;1.00;;;;;;;;5035456;28;45293;-71
2021/12/28 03:19:12;;;;;;;;;0.50;0.00;;;;;;;;5035481;28;46084;-71
2021/12/28 03:21:38;;;;;;;;;1.00;0.00;;;;;;;;5035784;28;45266;-73
2021/12/28 03:24:04;;;;;;;;;3.00;0.50;;;;;;;;5035708;28;45384;-73
2021/12/28 03:26:30;;;;;;;;;0.50;0.00;;;;;;;;5037298;28;45441;-72
2021/12/28 03:28:55;;;;;;;;;0.00;0.00;;;;;;;;5035067;28;45510;-72
2021/12/28 03:31:21;;;;;;;;;0.25;0.25;;;;;;;;5035348;28;45573;-73
2021/12/28 03:33:48;;;;;;;;;0.50;0.00;;;;;;;;5035766;28;45569;-73
2021/12/28 03:36:15;;;;;;;;;0.00;0.00;;;;;;;;5034460;28;45537;-72
2021/12/28 03:38:40;;;;;;;;;0.00;0.00;;;;;;;;5036508;28;45428;-73
2021/12/28 03:41:07;;;;;;;;;0.00;0.00;;;;;;;;5034813;28;45342;-72
2021/12/28 03:43:37;;;;;;;;;0.25;0.00;;;;;;;;5035281;28;45442;-72
2021/12/28 03:46:03;;;;;;;;;0.00;0.00;;;;;;;;5035126;28;45470;-72
2021/12/28 03:48:28;;;;;;;;;0.00;0.00;;;;;;;;5033319;28;46319;-72
2021/12/28 03:50:53;;;;;;;;;0.50;0.50;;;;;;;;5036319;28;45422;-72
2021/12/28 03:53:18;;;;;;;;;1.50;1.00;;;;;;;;5034599;28;45249;-72
2021/12/28 03:55:44;;;;;;;;;0.00;0.00;;;;;;;;5034925;28;45277;-72
2021/12/28 03:58:09;;;;;;;;;3.00;0.00;;;;;;;;5034864;28;45451;-72
2021/12/28 04:00:37;;;;;;;;;0.00;0.00;;;;;;;;5034799;28;45368;-72
2021/12/28 04:03:02;;;;;;;;;0.00;0.00;;;;;;;;5035449;28;45329;-72
2021/12/28 04:05:28;;;;;;;;;0.00;0.00;;;;;;;;5034824;28;45329;-72
2021/12/28 04:07:53;;;;;;;;;1.00;0.00;;;;;;;;5033970;28;45384;-72
2021/12/28 04:10:27;;;;;;;;;1.50;0.00;;;;;;;;5034454;28;45285;-73
2021/12/28 04:12:52;;;;;;;;;0.25;0.25;;;;;;;;5034804;28;45453;-72
2021/12/28 04:15:18;;;;;;;;;0.75;0.75;;;;;;;;5034787;28;45444;-73
2021/12/28 04:17:43;;;;;;;;;0.00;0.00;;;;;;;;5036234;28;45360;-72
2021/12/28 04:20:11;;;;;;;;;0.00;0.00;;;;;;;;5016448;28;45511;-72
2021/12/28 04:22:37;;;;;;;;;0.00;0.00;;;;;;;;5034556;28;45474;-72
2021/12/28 04:25:02;;;;;;;;;0.00;0.00;;;;;;;;5033883;28;45336;-72
2021/12/28 04:27:28;;;;;;;;;0.00;0.00;;;;;;;;5033042;28;45380;-72
2021/12/28 04:29:53;;;;;;;;;1.75;0.00;;;;;;;;5035291;28;45265;-71
2021/12/28 04:32:18;;;;;;;;;1.00;1.00;;;;;;;;5033798;28;45502;-72
2021/12/28 04:34:43;;;;;;;;;0.00;0.00;;;;;;;;5034369;28;45539;-71
2021/12/28 04:37:09;;;;;;;;;0.00;0.00;;;;;;;;5033885;28;46310;-72
2021/12/28 04:39:34;;;;;;;;;0.00;0.00;;;;;;;;5033891;28;45535;-72
2021/12/28 04:41:59;;;;;;;;;1.00;0.00;;;;;;;;5034812;28;45231;-72
2021/12/28 04:44:25;;;;;;;;;1.00;0.00;;;;;;;;5035383;28;45235;-72
2021/12/28 04:46:52;;;;;;;;;0.00;0.00;;;;;;;;5033908;28;46097;-71
2021/12/28 04:49:19;;;;;;;;;0.25;0.25;;;;;;;;5015421;28;45502;-72
2021/12/28 04:51:44;;;;;;;;;0.25;0.25;;;;;;;;5034191;28;45411;-72
2021/12/28 04:54:12;;;;;;;;;2.50;1.00;;;;;;;;5033803;28;45352;-72
2021/12/28 04:56:38;;;;;;;;;0.00;0.00;;;;;;;;5035728;28;46212;-72
2021/12/28 04:59:03;;;;;;;;;1.00;1.00;;;;;;;;5033829;28;45404;-72
2021/12/28 05:01:29;;;;;;;;;0.00;0.00;;;;;;;;5034003;28;45467;-72
2021/12/28 05:03:54;;;;;;;;;0.00;0.00;;;;;;;;5033968;28;45499;-72
2021/12/28 05:06:19;;;;;;;;;0.00;0.00;;;;;;;;5032335;28;47000;-72
2021/12/28 05:08:44;;;;;;;;;0.00;0.00;;;;;;;;5034971;28;45440;-71
2021/12/28 05:11:10;;;;;;;;;0.00;0.00;;;;;;;;5027256;28;45268;-72
2021/12/28 05:13:35;;;;;;;;;1.00;1.00;;;;;;;;5033410;28;45498;-72
2021/12/28 05:16:00;;;;;;;;;1.50;0.50;;;;;;;;5032973;28;46252;-72
2021/12/28 05:18:25;;;;;;;;;0.00;0.00;;;;;;;;5033867;28;45596;-71
2021/12/28 05:20:51;;;;;;;;;0.00;0.00;;;;;;;;5034807;28;45483;-71
2021/12/28 05:23:16;;;;;;;;;1.25;0.75;;;;;;;;5015381;28;45486;-72
2021/12/28 05:25:42;;;;;;;;;2.00;0.00;;;;;;;;5033242;28;45537;-72
2021/12/28 05:28:07;;;;;;;;;1.00;0.00;;;;;;;;5033019;28;45404;-71
2021/12/28 05:30:33;;;;;;;;;0.00;0.00;;;;;;;;5033067;28;45358;-72
2021/12/28 05:32:58;;;;;;;;;0.75;0.00;;;;;;;;5033628;28;45334;-71
2021/12/28 05:35:24;;;;;;;;;0.00;0.00;;;;;;;;5015798;28;47122;-71
2021/12/28 05:37:49;;;;;;;;;0.50;0.00;;;;;;;;5032338;28;45460;-71
2021/12/28 05:40:15;;;;;;;;;0.00;0.00;;;;;;;;5032622;28;45489;-71
2021/12/28 05:42:40;;;;;;;;;0.25;0.25;;;;;;;;5032957;28;45504;-72
2021/12/28 05:45:06;;;;;;;;;2.50;1.00;;;;;;;;5033360;28;45370;-73
2021/12/28 05:47:31;;;;;;;;;2.00;0.00;;;;;;;;5032561;28;45375;-71
2021/12/28 05:49:56;;;;;;;;;1.00;0.25;;;;;;;;5030883;28;45508;-72
2021/12/28 05:52:22;;;;;;;;;0.00;0.00;;;;;;;;5032470;28;45467;-72
2021/12/28 05:54:47;;;;;;;;;2.00;0.00;;;;;;;;5032413;28;45381;-71
2021/12/28 05:57:13;;;;;;;;;1.75;0.00;;;;;;;;5032505;28;45210;-71
2021/12/28 05:59:38;;;;;;;;;1.75;0.00;;;;;;;;5034687;28;45305;-72
2021/12/28 06:02:04;;;;;;;;;1.00;0.50;;;;;;;;5032214;28;45443;-72
2021/12/28 06:04:29;;;;;;;;;1.25;1.25;;;;;;;;5032346;28;45360;-73
2021/12/28 06:06:54;;;;;;;;;1.50;0.25;;;;;;;;5031858;28;45274;-71
2021/12/28 06:09:19;;;;;;;;;0.25;0.25;;;;;;;;5032103;28;45556;-71
2021/12/28 06:11:45;;;;;;;;;1.00;1.00;;;;;;;;5034574;28;45334;-71
2021/12/28 06:14:10;;;;;;;;;1.25;1.00;;;;;;;;5031978;28;46265;-71
2021/12/28 06:16:36;;;;;;;;;0.25;0.00;;;;;;;;5031562;28;45318;-71
2021/12/28 06:19:05;;;;;;;;;2.00;0.00;;;;;;;;5031938;28;45260;-73
2021/12/28 06:21:31;;;;;;;;;1.00;1.00;;;;;;;;5031129;28;45406;-73
2021/12/28 06:23:56;;;;;;;;;1.75;0.50;;;;;;;;5032740;28;46125;-72
2021/12/28 06:26:22;;;;;;;;;2.00;1.00;;;;;;;;5031509;28;45436;-72
2021/12/28 06:28:47;;;;;;;;;1.00;0.00;;;;;;;;5029784;28;45419;-72
2021/12/28 06:31:12;;;;;;;;;1.25;0.50;;;;;;;;5032012;28;45510;-69
2021/12/28 06:33:37;;;;;;;;;3.00;0.75;;;;;;;;5035297;28;47070;-70
2021/12/28 06:36:05;;;;;;;;;3.25;1.25;;;;;;;;5034973;28;45348;-69
2021/12/28 06:38:30;;;;;;;;;3.00;2.00;;;;;;;;5035639;28;45433;-70
2021/12/28 06:40:55;;;;;;;;;2.00;1.00;;;;;;;;5035216;28;45449;-69
2021/12/28 06:43:21;;;;;;;;;1.25;0.00;;;;;;;;5017299;28;46883;-70
2021/12/28 06:45:46;;;;;;;;;2.00;0.00;;;;;;;;5034744;28;45333;-69
2021/12/28 06:48:11;;;;;;;;;1.50;0.25;;;;;;;;5016914;28;45641;-70
2021/12/28 06:50:36;;;;;;;;;1.50;1.00;;;;;;;;5036606;28;45436;-70
2021/12/28 06:53:02;;;;;;;;;2.50;2.00;;;;;;;;5034806;28;46214;-70
2021/12/28 06:55:27;;;;;;;;;0.25;0.00;;;;;;;;5035071;28;45468;-69
2021/12/28 06:57:52;;;;;;;;;4.25;2.00;;;;;;;;5035185;28;45478;-70
2021/12/28 07:00:18;;;;;;;;;2.00;1.00;;;;;;;;5035113;28;45285;-70
2021/12/28 07:02:43;;;;;;;;;5.25;1.00;;;;;;;;5036669;28;46041;-68
2021/12/28 07:05:11;;;;;;;;;2.00;1.00;;;;;;;;5023166;28;45538;-69
2021/12/28 07:07:38;;;;;;;;;1.75;1.75;;;;;;;;5028590;28;45496;-70
2021/12/28 07:10:04;;;;;;;;;5.00;1.75;;;;;;;;5033755;28;45474;-74
2021/12/28 07:12:29;;;;;;;;;2.00;1.00;;;;;;;;5015153;28;48090;-73
2021/12/28 07:14:54;;;;;;;;;3.00;1.00;;;;;;;;5034825;28;45278;-72
2021/12/28 07:17:19;;;;;;;;;4.00;1.00;;;;;;;;5034601;28;45605;-71
2021/12/28 07:19:46;;;;;;;;;4.00;1.75;;;;;;;;5033512;28;45421;-73
2021/12/28 07:22:11;;;;;;;;;2.75;1.00;;;;;;;;5033670;28;47246;-73
2021/12/28 07:24:36;;;;;;;;;1.00;1.00;;;;;;;;5033636;28;45348;-73
2021/12/28 07:27:02;;;;;;;;;3.75;3.00;;;;;;;;5034232;28;45282;-73
2021/12/28 07:29:27;;;;;;;;;3.75;2.00;;;;;;;;5035177;28;45424;-72
2021/12/28 07:31:52;;;;;;;;;1.75;1.00;;;;;;;;5033478;28;47069;-74
2021/12/28 07:34:17;;;;;;;;;5.00;1.25;;;;;;;;5033168;28;45498;-74
2021/12/28 07:36:43;;;;;;;;;2.50;2.00;;;;;;;;5033103;28;45419;-73
2021/12/28 07:39:08;;;;;;;;;4.50;3.00;;;;;;;;5033440;28;45289;-73
2021/12/28 07:41:33;;;;;;;;;3.25;2.00;;;;;;;;5034639;28;45425;-73
2021/12/28 07:43:59;;;;;;;;;0.75;0.50;;;;;;;;5012501;28;45700;-73
2021/12/28 07:46:24;;;;;;;;;3.75;3.75;;;;;;;;5032176;28;45607;-73
2021/12/28 07:48:49;;;;;;;;;1.00;1.00;;;;;;;;5014557;28;45420;-73
2021/12/28 07:51:15;;;;;;;;;2.00;1.75;;;;;;;;5032905;28;45404;-73
2021/12/28 07:53:41;;;;;;;;;2.00;2.00;;;;;;;;5034750;28;45382;-74
2021/12/28 07:56:06;;;;;;;;;2.25;1.00;;;;;;;;5033158;28;45428;-73
2021/12/28 07:58:31;;;;;;;;;2.25;1.00;;;;;;;;5033077;28;45381;-73
2021/12/28 08:00:57;;;;;;;;;2.00;1.00;;;;;;;;5014623;28;48156;-73
2021/12/28 08:03:22;;;;;;;;;2.50;2.00;;;;;;;;5032849;28;45420;-74
2021/12/28 08:05:48;;;;;;;;;1.00;1.00;;;;;;;;5035745;28;45908;-73
2021/12/28 08:08:13;;;;;;;;;1.75;1.75;;;;;;;;5031750;28;45583;-72
2021/12/28 08:10:40;;;;;;;;;4.25;2.25;;;;;;;;5032830;28;46445;-73
2021/12/28 08:13:05;;;;;;;;;0.50;0.50;;;;;;;;5033628;28;45373;-73
2021/12/28 08:15:30;;;;;;;;;1.75;1.75;;;;;;;;5015325;28;45467;-72
2021/12/28 08:17:55;;;;;;;;;3.25;2.00;;;;;;;;5034435;28;45443;-71
2021/12/28 08:20:20;;;;;;;;;2.00;1.00;;;;;;;;5033189;28;45639;-72
2021/12/28 08:22:46;;;;;;;;;2.00;2.00;;;;;;;;5031037;28;45462;-72
2021/12/28 08:25:13;;;;;;;;;1.50;1.00;;;;;;;;5030875;28;45475;-70
2021/12/28 08:27:39;;;;;;;;;1.00;1.00;;;;;;;;5032636;28;45372;-72
2021/12/28 08:30:05;;;;;;;;;0.25;0.25;;;;;;;;5032080;28;45947;-72
2021/12/28 08:32:30;;;;;;;;;2.00;1.00;;;;;;;;5033967;28;45475;-71
2021/12/28 08:34:56;;;;;;;;;6.00;1.00;;;;;;;;5032685;28;45702;-71
2021/12/28 08:37:21;;;;;;;;;1.75;0.75;;;;;;;;5032497;28;45428;-71
2021/12/28 08:39:46;;;;;;;;;1.50;1.00;;;;;;;;5032268;28;45433;-71
2021/12/28 08:42:12;;;;;;;;;0.00;0.00;;;;;;;;5032611;28;45470;-71
2021/12/28 08:44:37;;;;;;;;;3.00;1.00;;;;;;;;5034507;28;45507;-69
2021/12/28 08:47:02;;;;;;;;;1.00;0.00;;;;;;;;5032023;28;45495;-73
2021/12/28 08:49:27;;;;;;;;;0.00;0.00;;;;;;;;5032127;28;46128;-70
2021/12/28 08:51:53;;;;;;;;;0.50;0.00;;;;;;;;5032066;28;45502;-71
2021/12/28 08:54:19;;;;;;;;;1.75;1.75;;;;;;;;5032274;28;45270;-71
2021/12/28 08:56:45;;;;;;;;;2.00;1.00;;;;;;;;5034031;28;45285;-72
2021/12/28 08:59:11;;;;;;;;;1.25;1.25;;;;;;;;5031895;28;46096;-72
2021/12/28 09:01:36;;;;;;;;;2.00;1.00;;;;;;;;5030330;28;45416;-72
2021/12/28 09:04:02;;;;;;;;;1.00;0.75;;;;;;;;5030410;28;45390;-73
2021/12/28 09:06:27;;;;;;;;;1.25;0.75;;;;;;;;5032245;28;45530;-72
2021/12/28 09:08:52;;;;;;;;;1.75;1.75;;;;;;;;5032747;28;45324;-73
2021/12/28 09:11:18;;;;;;;;;5.00;2.00;;;;;;;;5032206;28;45452;-70
2021/12/28 09:13:43;;;;;;;;;2.50;0.25;;;;;;;;5031870;28;45421;-73
2021/12/28 09:16:08;;;;;;;;;1.00;1.00;;;;;;;;5030613;28;45475;-73
2021/12/28 09:18:33;;;;;;;;;4.00;2.75;;;;;;;;5031096;28;45400;-72
2021/12/28 09:20:59;;;;;;;;;1.50;0.00;;;;;;;;5032547;28;45425;-73
2021/12/28 09:23:24;;;;;;;;;2.00;1.00;;;;;;;;5032596;28;45504;-74
2021/12/28 09:25:50;;;;;;;;;3.50;2.00;;;;;;;;5031670;28;45572;-73
2021/12/28 09:28:15;;;;;;;;;4.50;1.50;;;;;;;;5031573;28;46083;-73
2021/12/28 09:30:41;;;;;;;;;3.25;1.75;;;;;;;;5030831;28;45618;-73
2021/12/28 09:33:06;;;;;;;;;3.75;2.00;;;;;;;;5032154;28;45450;-72
2021/12/28 09:35:32;;;;;;;;;0.75;0.75;;;;;;;;5015521;28;45350;-73
2021/12/28 09:37:57;;;;;;;;;3.00;3.00;;;;;;;;5031989;28;45600;-72
2021/12/28 09:40:23;;;;;;;;;3.00;1.75;;;;;;;;5030003;28;45368;-74
2021/12/28 09:42:48;;;;;;;;;2.75;1.75;;;;;;;;5030621;28;45492;-73
2021/12/28 09:45:14;;;;;;;;;2.00;1.25;;;;;;;;5032191;28;45401;-73
2021/12/28 09:47:41;;;;;;;;;5.75;3.25;;;;;;;;5033826;28;46033;-73
2021/12/28 09:50:07;;;;;;;;;5.00;2.50;;;;;;;;5031576;28;45317;-74
2021/12/28 09:52:32;;;;;;;;;3.00;3.00;;;;;;;;5031920;28;45485;-73
2021/12/28 09:54:57;;;;;;;;;2.50;2.50;;;;;;;;5031709;28;45481;-73
2021/12/28 09:57:22;;;;;;;;;1.75;1.00;;;;;;;;5031572;28;46316;-74
2021/12/28 09:59:48;;;;;;;;;3.00;2.00;;;;;;;;5033344;28;45366;-73
2021/12/28 10:02:14;;;;;;;;;3.50;2.00;;;;;;;;5031610;28;45499;-73
2021/12/28 10:04:51;;;;;;;;;6.75;3.25;;;;;;;;5031552;28;45550;-73
2021/12/28 10:07:18;;;;;;;;;5.00;4.00;;;;;;;;5030826;28;47014;-73
2021/12/28 10:09:44;;;;;;;;;3.50;2.50;;;;;;;;5028118;28;45433;-74
2021/12/28 10:12:09;;;;;;;;;3.75;2.00;;;;;;;;5031622;28;45489;-73
2021/12/28 10:14:36;;;;;;;;;7.50;4.00;;;;;;;;5033786;28;45294;-74
2021/12/28 10:17:03;;;;;;;;;7.50;3.50;;;;;;;;5031523;28;46435;-73
2021/12/28 10:19:29;;;;;;;;;3.50;3.50;;;;;;;;5030597;28;45397;-73
2021/12/28 10:21:54;;;;;;;;;8.00;4.25;;;;;;;;5030607;28;45364;-72
2021/12/28 10:24:34;;;;;;;;;1.00;0.50;;;;;;;;5031512;28;45269;-73
2021/12/28 10:27:16;;;;;;;;;3.25;2.00;;;;;;;;5029292;28;46421;-73
2021/12/28 10:29:42;;;;;;;;;5.75;4.50;;;;;;;;5032683;28;45369;-72
2021/12/28 10:32:18;;;;;;;;;6.25;3.00;;;;;;;;5031484;28;45610;-73
2021/12/28 10:34:47;;;;;;;;;3.25;2.50;;;;;;;;5030882;28;45490;-74
2021/12/28 10:37:16;;;;;;;;;6.25;4.25;;;;;;;;5030752;28;45511;-73
2021/12/28 10:39:45;;;;;;;;;5.00;2.75;;;;;;;;5030985;28;45459;-73
2021/12/28 10:42:30;;;;;;;;;0.25;0.25;;;;;;;;5031183;28;45385;-75
2021/12/28 10:45:00;;;;;;;;;4.50;3.50;;;;;;;;5029911;28;45454;-72
2021/12/28 10:47:26;;;;;;;;;7.25;6.00;;;;;;;;5032620;28;46119;-72
2021/12/28 10:49:51;;;;;;;;;4.00;3.00;;;;;;;;5031062;28;45475;-74
2021/12/28 10:52:30;;;;;;;;;3.50;3.00;;;;;;;;5031394;28;45391;-74
2021/12/28 10:55:13;;;;;;;;;6.25;3.75;;;;;;;;5031167;28;45373;-73
2021/12/28 10:57:39;;;;;;;;;5.00;4.00;;;;;;;;5030601;28;47436;-74
2021/12/28 11:00:26;;;;;;;;;8.00;3.00;;;;;;;;5031713;28;46040;-74
2021/12/28 11:03:09;;;;;;;;;6.75;4.50;;;;;;;;5029498;28;45535;-73
2021/12/28 11:05:35;;;;;;;;;11.50;8.75;;;;;;;;5031764;28;45475;-75
2021/12/28 11:08:01;;;;;;;;;6.50;5.00;;;;;;;;5030945;28;45281;-74
2021/12/28 11:10:27;;;;;;;;;9.50;3.50;;;;;;;;5030203;28;45299;-73
2021/12/28 11:12:54;;;;;;;;;4.75;2.75;;;;;;;;5030029;28;45491;-74
2021/12/28 11:15:22;;;;;;;;;3.75;2.00;;;;;;;;5030185;28;45300;-74
2021/12/28 11:17:48;;;;;;;;;8.00;4.75;;;;;;;;5013063;28;46112;-73
2021/12/28 11:20:13;;;;;;;;;8.25;4.25;;;;;;;;5035330;28;45424;-73
2021/12/28 11:22:38;;;;;;;;;5.75;4.25;;;;;;;;5035260;28;45507;-74
2021/12/28 11:25:16;;;;;;;;;10.50;5.50;;;;;;;;5034636;28;45285;-72
2021/12/28 11:27:41;;;;;;;;;7.75;5.00;;;;;;;;5035121;28;46505;-71
2021/12/28 11:30:13;;;;;;;;;8.00;4.25;;;;;;;;5036229;28;45522;-74
2021/12/28 11:32:39;;;;;;;;;6.00;3.00;;;;;;;;5036755;28;45553;-73
2021/12/28 11:35:06;;;;;;;;;5.25;2.50;;;;;;;;5035226;28;45408;-73
2021/12/28 11:37:32;;;;;;;;;4.50;2.50;;;;;;;;5032843;28;47399;-72
2021/12/28 11:40:00;;;;;;;;;5.75;4.00;;;;;;;;5033036;28;45397;-71
2021/12/28 11:42:25;;;;;;;;;5.50;2.00;;;;;;;;5034903;28;45542;-73
2021/12/28 11:44:54;;;;;;;;;4.25;2.25;;;;;;;;5036215;28;45340;-71
2021/12/28 11:47:20;;;;;;;;;1.00;1.00;;;;;;;;5033670;28;45346;-72
2021/12/28 11:49:47;;;;;;;;;4.75;3.25;;;;;;;;5029059;28;45633;-74
2021/12/28 11:52:15;;;;;;;;;4.00;4.00;;;;;;;;5028161;28;45298;-75
2021/12/28 11:54:44;;;;;;;;;7.75;2.50;;;;;;;;5034757;28;45579;-74
2021/12/28 11:57:20;;;;;;;;;3.50;1.75;;;;;;;;5033328;28;46086;-73
2021/12/28 11:59:52;;;;;;;;;4.25;2.75;;;;;;;;5035054;28;45304;-73
2021/12/28 12:02:17;;;;;;;;;3.50;1.75;;;;;;;;5032370;28;45410;-74
2021/12/28 12:04:50;;;;;;;;;6.00;3.75;;;;;;;;5033745;28;45398;-74
2021/12/28 12:07:16;;;;;;;;;5.25;5.25;;;;;;;;5033187;28;45499;-74
2021/12/28 12:09:50;;;;;;;;;8.00;2.75;;;;;;;;5032451;28;45551;-73
2021/12/28 12:12:17;;;;;;;;;2.75;2.50;;;;;;;;5033587;28;45438;-74
2021/12/28 12:14:56;;;;;;;;;3.25;2.75;;;;;;;;5035406;28;45507;-73
2021/12/28 12:17:28;;;;;;;;;3.33;2.00;;;;;;;;5034375;28;46096;-75
2021/12/28 12:19:54;;;;;;;;;6.00;3.67;;;;;;;;5032478;28;45254;-77
2021/12/28 12:22:31;;;;;;;;;3.00;0.33;;;;;;;;5037371;28;45451;-76
2021/12/28 12:25:01;;;;;;;;;4.67;2.00;;;;;;;;5039516;28;45608;-77
2021/12/28 12:27:38;;;;;;;;;3.67;3.67;;;;;;;;5043086;28;46783;-78
2021/12/28 12:30:24;;;;;;;;;2.00;0.00;;;;;;;;5032074;28;45345;-77
2021/12/28 12:33:09;;;;;;;;;5.00;4.67;;;;;;;;5031230;28;45365;-77
2021/12/28 12:35:46;;;;;;;;;8.67;3.00;;;;;;;;5032431;28;45605;-77
2021/12/28 12:38:12;;;;;;;;;3.67;3.67;;;;;;;;5031673;28;45965;-74
2021/12/28 12:40:54;;;;;;;;;6.33;3.67;;;;;;;;5031687;28;45492;-73
2021/12/28 12:43:20;;;;;;;;;7.67;4.33;;;;;;;;5032352;28;45349;-73
2021/12/28 12:45:52;;;;;;;;;10.33;4.00;;;;;;;;5032608;28;45552;-76
2021/12/28 12:48:52;;;;;;;;;2.67;2.67;;;;;;;;5032217;28;47108;-74
2021/12/28 12:51:27;;;;;;;;;7.33;4.00;;;;;;;;5031826;28;45430;-74
2021/12/28 12:53:58;;;;;;;;;9.33;3.00;;;;;;;;5029961;28;45531;-73
2021/12/28 12:56:27;;;;;;;;;4.67;3.67;;;;;;;;5013894;28;45368;-74
2021/12/28 12:58:53;;;;;;;;;3.67;3.00;;;;;;;;5030319;28;45787;-74
2021/12/28 13:01:21;;;;;;;;;4.33;2.00;;;;;;;;5031775;28;45273;-75
2021/12/28 13:03:46;;;;;;;;;4.00;2.67;;;;;;;;5032795;28;45462;-75
2021/12/28 13:06:12;;;;;;;;;1.50;1.50;;;;;;;;5031865;28;45505;-77
2021/12/28 13:08:38;;;;;;;;;1.25;1.25;;;;;;;;5033943;28;47211;-75
2021/12/28 13:11:03;;;;;;;;;4.25;2.00;;;;;;;;5032352;28;45515;-76
2021/12/28 13:13:28;;;;;;;;;3.00;3.00;;;;;;;;5032670;28;45441;-75
2021/12/28 13:15:53;;;;;;;;;2.00;2.00;;;;;;;;5015478;28;45449;-76
2021/12/28 13:18:19;;;;;;;;;2.00;2.00;;;;;;;;5033548;28;46055;-75
2021/12/28 13:20:47;;;;;;;;;2.00;2.00;;;;;;;;5034919;28;45345;-75
2021/12/28 13:23:13;;;;;;;;;1.25;1.25;;;;;;;;5032577;28;45247;-75
2021/12/28 13:25:45;;;;;;;;;4.00;1.00;;;;;;;;5032801;28;45524;-75
2021/12/28 13:28:11;;;;;;;;;4.00;2.00;;;;;;;;5032330;28;46141;-75
2021/12/28 13:30:38;;;;;;;;;2.25;1.25;;;;;;;;5032033;28;45313;-75
2021/12/28 13:33:05;;;;;;;;;3.00;3.00;;;;;;;;5032803;28;45355;-77
2021/12/28 13:35:36;;;;;;;;;7.50;4.75;;;;;;;;5031621;28;45477;-76
2021/12/28 13:38:06;;;;;;;;;5.75;4.75;;;;;;;;5029900;28;46290;-75
2021/12/28 13:40:38;;;;;;;;;2.50;2.50;;;;;;;;5031571;28;45588;-72
2021/12/28 13:43:08;;;;;;;;;4.00;1.50;;;;;;;;5032353;28;45541;-73
2021/12/28 13:45:33;;;;;;;;;3.50;1.75;;;;;;;;5031736;28;45594;-73
2021/12/28 13:48:00;;;;;;;;;3.00;1.00;;;;;;;;5033151;28;47121;-74
2021/12/28 13:50:25;;;;;;;;;7.50;4.25;;;;;;;;5032167;28;45372;-73
2021/12/28 13:52:52;;;;;;;;;5.00;1.00;;;;;;;;5031527;28;45480;-72
2021/12/28 13:55:23;;;;;;;;;2.75;1.75;;;;;;;;5031948;28;45496;-73
2021/12/28 13:57:48;;;;;;;;;4.75;4.00;;;;;;;;5031792;28;46299;-73
2021/12/28 14:00:14;;;;;;;;;4.25;2.50;;;;;;;;5031987;28;45253;-73
2021/12/28 14:02:40;;;;;;;;;2.50;1.00;;;;;;;;5033819;28;45373;-73
2021/12/28 14:05:06;;;;;;;;;6.00;3.25;;;;;;;;5030997;28;45431;-74
2021/12/28 14:07:33;;;;;;;;;3.75;2.25;;;;;;;;5030883;28;46448;-73
2021/12/28 14:09:58;;;;;;;;;4.00;1.75;;;;;;;;5031098;28;45411;-72
2021/12/28 14:12:23;;;;;;;;;4.00;3.00;;;;;;;;5030218;28;45527;-72
2021/12/28 14:14:49;;;;;;;;;2.00;2.00;;;;;;;;5015779;28;45477;-73
2021/12/28 14:17:14;;;;;;;;;2.00;2.00;;;;;;;;5029190;28;45998;-74
2021/12/28 14:19:41;;;;;;;;;1.00;0.00;;;;;;;;5030902;28;45463;-71
2021/12/28 14:22:10;;;;;;;;;1.00;1.00;;;;;;;;5031027;28;46160;-72
2021/12/28 14:24:35;;;;;;;;;0.00;0.00;;;;;;;;5031069;28;45360;-71
2021/12/28 14:27:01;;;;;;;;;2.00;2.00;;;;;;;;5031537;28;46110;-72
2021/12/28 14:29:28;;;;;;;;;4.67;1.00;;;;;;;;5032117;28;45387;-73
2021/12/28 14:31:57;;;;;;;;;1.75;1.75;;;;;;;;5030825;28;45317;-72
2021/12/28 14:34:36;;;;;;;;;3.00;0.00;;;;;;;;5030095;28;45461;-72
2021/12/28 14:37:20;;;;;;;;;0.67;0.67;;;;;;;;5030568;28;46109;-74
2021/12/28 14:39:47;;;;;;;;;3.67;1.67;;;;;;;;5030329;28;45500;-72
2021/12/28 14:42:18;;;;;;;;;0.67;0.67;;;;;;;;5030674;28;45290;-73